sensor_id;sensor_type;location;lat;lon;timestamp;P1;durP1;ratioP1;P2;durP2;ratioP2
69005;SDS011;56061;51.748;19.620;2022-09-24T00:01:33;26.80;;;14.10;;
69005;SDS011;56061;51.748;19.620;2022-09-24T00:04:04;28.50;;;15.10;;
69005;SDS011;56061;51.748;19.620;2022-09-24T00:06:36;25.50;;;13.40;;
69005;SDS011;56061;51.748;19.620;2022-09-24T00:09:11;25.20;;;14.00;;
69005;SDS011;56061;51.748;19.620;2022-09-24T00:11:42;24.20;;;12.90;;
69005;SDS011;56061;51.748;19.620;2022-09-24T00:14:11;26.10;;;13.70;;
69005;SDS011;56061;51.748;19.620;2022-09-24T00:16:40;23.80;;;13.10;;
69005;SDS011;56061;51.748;19.620;2022-09-24T00:19:09;23.10;;;13.40;;
69005;SDS011;56061;51.748;19.620;2022-09-24T00:21:38;22.90;;;13.10;;
69005;SDS011;56061;51.748;19.620;2022-09-24T00:24:12;24.10;;;12.60;;
69005;SDS011;56061;51.748;19.620;2022-09-24T00:26:59;21.70;;;12.40;;
69005;SDS011;56061;51.748;19.620;2022-09-24T00:29:26;24.50;;;14.10;;
69005;SDS011;56061;51.748;19.620;2022-09-24T00:31:53;25.10;;;14.90;;
69005;SDS011;56061;51.748;19.620;2022-09-24T00:34:20;28.00;;;14.50;;
69005;SDS011;56061;51.748;19.620;2022-09-24T00:36:47;27.30;;;14.00;;
69005;SDS011;56061;51.748;19.620;2022-09-24T00:39:14;26.40;;;15.30;;
69005;SDS011;56061;51.748;19.620;2022-09-24T00:41:42;25.60;;;14.20;;
69005;SDS011;56061;51.748;19.620;2022-09-24T00:47:35;29.50;;;15.70;;
69005;SDS011;56061;51.748;19.620;2022-09-24T00:50:33;27.50;;;15.30;;
69005;SDS011;56061;51.748;19.620;2022-09-24T00:53:13;24.10;;;13.20;;
69005;SDS011;56061;51.748;19.620;2022-09-24T00:55:43;27.70;;;15.40;;
69005;SDS011;56061;51.748;19.620;2022-09-24T00:58:13;24.50;;;15.10;;
69005;SDS011;56061;51.748;19.620;2022-09-24T01:00:40;28.50;;;15.60;;
69005;SDS011;56061;51.748;19.620;2022-09-24T01:03:19;27.50;;;15.10;;
69005;SDS011;56061;51.748;19.620;2022-09-24T01:05:49;30.90;;;15.80;;
69005;SDS011;56061;51.748;19.620;2022-09-24T01:08:18;27.70;;;15.40;;
69005;SDS011;56061;51.748;19.620;2022-09-24T01:11:09;26.30;;;14.10;;
69005;SDS011;56061;51.748;19.620;2022-09-24T01:16:36;29.50;;;16.50;;
69005;SDS011;56061;51.748;19.620;2022-09-24T01:25:28;27.80;;;14.80;;
69005;SDS011;56061;51.748;19.620;2022-09-24T01:31:22;27.90;;;15.00;;
69005;SDS011;56061;51.748;19.620;2022-09-24T01:33:56;28.50;;;16.10;;
69005;SDS011;56061;51.748;19.620;2022-09-24T01:36:28;30.50;;;17.00;;
69005;SDS011;56061;51.748;19.620;2022-09-24T01:38:57;29.70;;;15.60;;
69005;SDS011;56061;51.748;19.620;2022-09-24T01:41:25;27.40;;;16.10;;
69005;SDS011;56061;51.748;19.620;2022-09-24T01:43:53;27.60;;;16.50;;
69005;SDS011;56061;51.748;19.620;2022-09-24T01:46:21;26.80;;;15.90;;
69005;SDS011;56061;51.748;19.620;2022-09-24T01:48:49;29.50;;;15.30;;
69005;SDS011;56061;51.748;19.620;2022-09-24T01:51:24;27.00;;;15.70;;
69005;SDS011;56061;51.748;19.620;2022-09-24T01:54:13;26.40;;;15.00;;
69005;SDS011;56061;51.748;19.620;2022-09-24T01:57:14;29.30;;;15.70;;
69005;SDS011;56061;51.748;19.620;2022-09-24T01:59:55;25.70;;;14.20;;
69005;SDS011;56061;51.748;19.620;2022-09-24T02:02:36;28.30;;;15.20;;
69005;SDS011;56061;51.748;19.620;2022-09-24T02:05:28;27.70;;;15.80;;
69005;SDS011;56061;51.748;19.620;2022-09-24T02:08:06;25.40;;;14.80;;
69005;SDS011;56061;51.748;19.620;2022-09-24T02:13:26;26.60;;;14.30;;
69005;SDS011;56061;51.748;19.620;2022-09-24T02:16:07;29.10;;;15.20;;
69005;SDS011;56061;51.748;19.620;2022-09-24T02:18:39;26.50;;;15.80;;
69005;SDS011;56061;51.748;19.620;2022-09-24T02:21:13;28.60;;;15.80;;
69005;SDS011;56061;51.748;19.620;2022-09-24T02:23:50;28.40;;;15.90;;
69005;SDS011;56061;51.748;19.620;2022-09-24T02:26:21;29.30;;;17.10;;
69005;SDS011;56061;51.748;19.620;2022-09-24T02:28:48;30.00;;;17.40;;
69005;SDS011;56061;51.748;19.620;2022-09-24T02:31:24;27.70;;;16.20;;
69005;SDS011;56061;51.748;19.620;2022-09-24T02:33:58;31.40;;;16.20;;
69005;SDS011;56061;51.748;19.620;2022-09-24T02:37:13;27.80;;;16.20;;
69005;SDS011;56061;51.748;19.620;2022-09-24T02:39:41;29.90;;;16.60;;
69005;SDS011;56061;51.748;19.620;2022-09-24T02:42:10;27.00;;;15.40;;
69005;SDS011;56061;51.748;19.620;2022-09-24T02:44:39;26.90;;;16.10;;
69005;SDS011;56061;51.748;19.620;2022-09-24T02:47:06;28.00;;;15.90;;
69005;SDS011;56061;51.748;19.620;2022-09-24T02:49:33;25.30;;;15.80;;
69005;SDS011;56061;51.748;19.620;2022-09-24T02:52:00;26.60;;;16.20;;
69005;SDS011;56061;51.748;19.620;2022-09-24T02:54:27;28.70;;;16.40;;
69005;SDS011;56061;51.748;19.620;2022-09-24T02:56:54;25.20;;;15.50;;
69005;SDS011;56061;51.748;19.620;2022-09-24T02:59:21;29.60;;;16.10;;
69005;SDS011;56061;51.748;19.620;2022-09-24T03:01:48;27.60;;;15.90;;
69005;SDS011;56061;51.748;19.620;2022-09-24T03:04:15;28.00;;;17.10;;
69005;SDS011;56061;51.748;19.620;2022-09-24T03:06:42;28.90;;;16.80;;
69005;SDS011;56061;51.748;19.620;2022-09-24T03:09:11;30.50;;;16.10;;
69005;SDS011;56061;51.748;19.620;2022-09-24T03:11:38;28.00;;;15.90;;
69005;SDS011;56061;51.748;19.620;2022-09-24T03:14:05;27.50;;;16.90;;
69005;SDS011;56061;51.748;19.620;2022-09-24T03:16:32;27.40;;;16.90;;
69005;SDS011;56061;51.748;19.620;2022-09-24T03:18:59;30.10;;;15.90;;
69005;SDS011;56061;51.748;19.620;2022-09-24T03:21:26;29.50;;;16.60;;
69005;SDS011;56061;51.748;19.620;2022-09-24T03:23:53;26.60;;;15.80;;
69005;SDS011;56061;51.748;19.620;2022-09-24T03:26:19;28.20;;;17.00;;
69005;SDS011;56061;51.748;19.620;2022-09-24T03:28:46;30.10;;;18.40;;
69005;SDS011;56061;51.748;19.620;2022-09-24T03:31:12;31.40;;;17.20;;
69005;SDS011;56061;51.748;19.620;2022-09-24T03:33:46;30.20;;;17.10;;
69005;SDS011;56061;51.748;19.620;2022-09-24T03:36:22;30.80;;;18.20;;
69005;SDS011;56061;51.748;19.620;2022-09-24T03:38:54;26.10;;;16.40;;
69005;SDS011;56061;51.748;19.620;2022-09-24T03:41:26;28.70;;;17.30;;
69005;SDS011;56061;51.748;19.620;2022-09-24T03:43:54;28.40;;;17.60;;
69005;SDS011;56061;51.748;19.620;2022-09-24T03:46:21;30.10;;;17.80;;
69005;SDS011;56061;51.748;19.620;2022-09-24T03:48:56;29.50;;;17.10;;
69005;SDS011;56061;51.748;19.620;2022-09-24T03:51:25;30.00;;;18.00;;
69005;SDS011;56061;51.748;19.620;2022-09-24T03:53:52;32.60;;;18.30;;
69005;SDS011;56061;51.748;19.620;2022-09-24T03:56:18;33.10;;;17.80;;
69005;SDS011;56061;51.748;19.620;2022-09-24T03:58:45;32.50;;;19.10;;
69005;SDS011;56061;51.748;19.620;2022-09-24T04:01:15;26.70;;;17.40;;
69005;SDS011;56061;51.748;19.620;2022-09-24T04:03:48;30.80;;;18.10;;
69005;SDS011;56061;51.748;19.620;2022-09-24T04:06:15;28.20;;;17.50;;
69005;SDS011;56061;51.748;19.620;2022-09-24T04:08:48;31.20;;;17.80;;
69005;SDS011;56061;51.748;19.620;2022-09-24T04:11:15;31.70;;;18.90;;
69005;SDS011;56061;51.748;19.620;2022-09-24T04:13:42;32.00;;;19.70;;
69005;SDS011;56061;51.748;19.620;2022-09-24T04:16:09;30.20;;;18.80;;
69005;SDS011;56061;51.748;19.620;2022-09-24T04:18:35;32.80;;;17.70;;
69005;SDS011;56061;51.748;19.620;2022-09-24T04:21:04;33.50;;;19.00;;
69005;SDS011;56061;51.748;19.620;2022-09-24T04:23:32;33.20;;;18.10;;
69005;SDS011;56061;51.748;19.620;2022-09-24T04:25:59;29.20;;;17.00;;
69005;SDS011;56061;51.748;19.620;2022-09-24T04:28:28;27.40;;;17.30;;
69005;SDS011;56061;51.748;19.620;2022-09-24T04:30:56;31.10;;;18.50;;
69005;SDS011;56061;51.748;19.620;2022-09-24T04:33:23;32.20;;;18.40;;
69005;SDS011;56061;51.748;19.620;2022-09-24T04:35:51;33.50;;;18.30;;
69005;SDS011;56061;51.748;19.620;2022-09-24T04:38:18;30.80;;;18.20;;
69005;SDS011;56061;51.748;19.620;2022-09-24T04:40:46;31.10;;;17.90;;
69005;SDS011;56061;51.748;19.620;2022-09-24T04:43:13;31.80;;;19.00;;
69005;SDS011;56061;51.748;19.620;2022-09-24T04:45:40;32.90;;;19.70;;
69005;SDS011;56061;51.748;19.620;2022-09-24T04:48:09;28.40;;;17.90;;
69005;SDS011;56061;51.748;19.620;2022-09-24T04:50:36;30.80;;;18.50;;
69005;SDS011;56061;51.748;19.620;2022-09-24T04:53:11;32.80;;;18.20;;
69005;SDS011;56061;51.748;19.620;2022-09-24T04:55:37;28.50;;;17.80;;
69005;SDS011;56061;51.748;19.620;2022-09-24T04:58:05;31.00;;;18.10;;
69005;SDS011;56061;51.748;19.620;2022-09-24T05:00:31;32.30;;;17.90;;
69005;SDS011;56061;51.748;19.620;2022-09-24T05:03:01;31.40;;;18.00;;
69005;SDS011;56061;51.748;19.620;2022-09-24T05:05:32;33.60;;;19.70;;
69005;SDS011;56061;51.748;19.620;2022-09-24T05:08:01;30.90;;;19.10;;
69005;SDS011;56061;51.748;19.620;2022-09-24T05:10:29;34.20;;;19.50;;
69005;SDS011;56061;51.748;19.620;2022-09-24T05:12:58;28.90;;;18.70;;
69005;SDS011;56061;51.748;19.620;2022-09-24T05:15:26;32.60;;;18.10;;
69005;SDS011;56061;51.748;19.620;2022-09-24T05:17:52;31.00;;;17.70;;
69005;SDS011;56061;51.748;19.620;2022-09-24T05:20:19;28.60;;;17.40;;
69005;SDS011;56061;51.748;19.620;2022-09-24T05:22:47;26.10;;;17.20;;
69005;SDS011;56061;51.748;19.620;2022-09-24T05:25:17;26.80;;;16.00;;
69005;SDS011;56061;51.748;19.620;2022-09-24T05:27:45;28.20;;;16.60;;
69005;SDS011;56061;51.748;19.620;2022-09-24T05:30:18;27.60;;;16.80;;
69005;SDS011;56061;51.748;19.620;2022-09-24T05:32:46;24.70;;;15.30;;
69005;SDS011;56061;51.748;19.620;2022-09-24T05:35:18;24.40;;;14.10;;
69005;SDS011;56061;51.748;19.620;2022-09-24T05:37:46;21.60;;;13.40;;
69005;SDS011;56061;51.748;19.620;2022-09-24T05:40:15;24.20;;;13.70;;
69005;SDS011;56061;51.748;19.620;2022-09-24T05:43:01;21.90;;;12.70;;
69005;SDS011;56061;51.748;19.620;2022-09-24T05:45:30;18.10;;;10.80;;
69005;SDS011;56061;51.748;19.620;2022-09-24T05:47:57;22.20;;;12.30;;
69005;SDS011;56061;51.748;19.620;2022-09-24T05:50:25;21.80;;;11.20;;
69005;SDS011;56061;51.748;19.620;2022-09-24T05:52:52;20.90;;;11.90;;
69005;SDS011;56061;51.748;19.620;2022-09-24T05:55:19;21.10;;;12.10;;
69005;SDS011;56061;51.748;19.620;2022-09-24T05:57:45;18.60;;;11.50;;
69005;SDS011;56061;51.748;19.620;2022-09-24T06:00:12;20.90;;;11.80;;
69005;SDS011;56061;51.748;19.620;2022-09-24T06:02:39;21.30;;;12.90;;
69005;SDS011;56061;51.748;19.620;2022-09-24T06:05:06;21.00;;;12.60;;
69005;SDS011;56061;51.748;19.620;2022-09-24T06:07:33;19.90;;;12.30;;
69005;SDS011;56061;51.748;19.620;2022-09-24T06:10:00;19.80;;;12.10;;
69005;SDS011;56061;51.748;19.620;2022-09-24T06:12:27;21.20;;;12.70;;
69005;SDS011;56061;51.748;19.620;2022-09-24T06:14:54;23.10;;;14.00;;
69005;SDS011;56061;51.748;19.620;2022-09-24T06:17:20;28.30;;;15.90;;
69005;SDS011;56061;51.748;19.620;2022-09-24T06:19:47;36.60;;;20.70;;
69005;SDS011;56061;51.748;19.620;2022-09-24T06:22:14;44.40;;;24.20;;
69005;SDS011;56061;51.748;19.620;2022-09-24T06:24:41;47.20;;;24.10;;
69005;SDS011;56061;51.748;19.620;2022-09-24T06:27:07;48.80;;;24.90;;
69005;SDS011;56061;51.748;19.620;2022-09-24T06:29:34;59.80;;;30.80;;
69005;SDS011;56061;51.748;19.620;2022-09-24T06:32:01;41.00;;;21.20;;
69005;SDS011;56061;51.748;19.620;2022-09-24T06:34:27;32.30;;;18.10;;
69005;SDS011;56061;51.748;19.620;2022-09-24T06:36:54;21.60;;;12.70;;
69005;SDS011;56061;51.748;19.620;2022-09-24T06:39:22;22.40;;;13.00;;
69005;SDS011;56061;51.748;19.620;2022-09-24T06:41:49;22.70;;;14.10;;
69005;SDS011;56061;51.748;19.620;2022-09-24T06:44:17;22.90;;;15.90;;
69005;SDS011;56061;51.748;19.620;2022-09-24T06:46:44;31.30;;;22.50;;
69005;SDS011;56061;51.748;19.620;2022-09-24T06:49:11;29.40;;;21.90;;
69005;SDS011;56061;51.748;19.620;2022-09-24T06:51:38;30.40;;;18.30;;
69005;SDS011;56061;51.748;19.620;2022-09-24T06:54:05;32.90;;;18.60;;
69005;SDS011;56061;51.748;19.620;2022-09-24T06:56:31;38.60;;;17.40;;
69005;SDS011;56061;51.748;19.620;2022-09-24T06:58:58;30.50;;;14.30;;
69005;SDS011;56061;51.748;19.620;2022-09-24T07:01:25;32.10;;;14.60;;
69005;SDS011;56061;51.748;19.620;2022-09-24T07:03:51;30.40;;;14.10;;
69005;SDS011;56061;51.748;19.620;2022-09-24T07:06:18;34.00;;;16.00;;
69005;SDS011;56061;51.748;19.620;2022-09-24T07:08:49;37.50;;;15.90;;
69005;SDS011;56061;51.748;19.620;2022-09-24T07:11:16;45.70;;;18.10;;
69005;SDS011;56061;51.748;19.620;2022-09-24T07:13:43;41.10;;;18.20;;
69005;SDS011;56061;51.748;19.620;2022-09-24T07:16:13;31.10;;;15.50;;
69005;SDS011;56061;51.748;19.620;2022-09-24T07:18:39;28.90;;;15.40;;
69005;SDS011;56061;51.748;19.620;2022-09-24T07:21:06;33.60;;;16.40;;
69005;SDS011;56061;51.748;19.620;2022-09-24T07:23:32;31.40;;;16.40;;
69005;SDS011;56061;51.748;19.620;2022-09-24T07:26:00;25.60;;;13.50;;
69005;SDS011;56061;51.748;19.620;2022-09-24T07:28:26;30.30;;;16.30;;
69005;SDS011;56061;51.748;19.620;2022-09-24T07:30:57;27.60;;;15.00;;
69005;SDS011;56061;51.748;19.620;2022-09-24T07:33:25;29.60;;;15.30;;
69005;SDS011;56061;51.748;19.620;2022-09-24T07:35:52;22.00;;;13.40;;
69005;SDS011;56061;51.748;19.620;2022-09-24T07:38:18;22.90;;;13.70;;
69005;SDS011;56061;51.748;19.620;2022-09-24T07:40:45;19.70;;;12.20;;
69005;SDS011;56061;51.748;19.620;2022-09-24T07:43:12;20.90;;;11.80;;
69005;SDS011;56061;51.748;19.620;2022-09-24T07:45:41;19.40;;;10.90;;
69005;SDS011;56061;51.748;19.620;2022-09-24T07:48:09;19.70;;;10.60;;
69005;SDS011;56061;51.748;19.620;2022-09-24T07:50:40;19.50;;;10.50;;
69005;SDS011;56061;51.748;19.620;2022-09-24T07:53:11;27.70;;;13.30;;
69005;SDS011;56061;51.748;19.620;2022-09-24T07:55:38;23.40;;;12.40;;
69005;SDS011;56061;51.748;19.620;2022-09-24T07:58:07;21.50;;;11.50;;
69005;SDS011;56061;51.748;19.620;2022-09-24T08:00:37;18.90;;;10.30;;
69005;SDS011;56061;51.748;19.620;2022-09-24T08:03:04;20.60;;;10.10;;
69005;SDS011;56061;51.748;19.620;2022-09-24T08:05:31;21.20;;;9.80;;
69005;SDS011;56061;51.748;19.620;2022-09-24T08:07:59;18.60;;;9.20;;
69005;SDS011;56061;51.748;19.620;2022-09-24T08:10:26;22.50;;;11.40;;
69005;SDS011;56061;51.748;19.620;2022-09-24T08:12:53;20.90;;;11.40;;
69005;SDS011;56061;51.748;19.620;2022-09-24T08:15:22;32.50;;;14.70;;
69005;SDS011;56061;51.748;19.620;2022-09-24T08:17:49;23.50;;;11.80;;
69005;SDS011;56061;51.748;19.620;2022-09-24T08:20:16;24.60;;;11.40;;
69005;SDS011;56061;51.748;19.620;2022-09-24T08:22:43;27.50;;;11.90;;
69005;SDS011;56061;51.748;19.620;2022-09-24T08:25:10;29.50;;;12.50;;
69005;SDS011;56061;51.748;19.620;2022-09-24T08:27:37;32.70;;;13.60;;
69005;SDS011;56061;51.748;19.620;2022-09-24T08:30:05;25.30;;;11.40;;
69005;SDS011;56061;51.748;19.620;2022-09-24T08:32:32;19.70;;;9.60;;
69005;SDS011;56061;51.748;19.620;2022-09-24T08:34:59;14.10;;;7.60;;
69005;SDS011;56061;51.748;19.620;2022-09-24T08:37:27;13.40;;;7.30;;
69005;SDS011;56061;51.748;19.620;2022-09-24T08:39:53;13.30;;;7.80;;
69005;SDS011;56061;51.748;19.620;2022-09-24T08:45:04;15.60;;;8.10;;
69005;SDS011;56061;51.748;19.620;2022-09-24T08:47:55;16.70;;;8.60;;
69005;SDS011;56061;51.748;19.620;2022-09-24T08:50:30;13.00;;;7.30;;
69005;SDS011;56061;51.748;19.620;2022-09-24T08:55:58;14.10;;;7.50;;
69005;SDS011;56061;51.748;19.620;2022-09-24T09:01:41;12.00;;;6.80;;
69005;SDS011;56061;51.748;19.620;2022-09-24T09:09:45;11.90;;;6.70;;
69005;SDS011;56061;51.748;19.620;2022-09-24T09:12:35;13.50;;;7.60;;
69005;SDS011;56061;51.748;19.620;2022-09-24T09:15:10;14.00;;;7.50;;
69005;SDS011;56061;51.748;19.620;2022-09-24T09:17:58;12.30;;;7.40;;
69005;SDS011;56061;51.748;19.620;2022-09-24T09:20:48;13.20;;;8.00;;
69005;SDS011;56061;51.748;19.620;2022-09-24T09:23:19;13.10;;;8.20;;
69005;SDS011;56061;51.748;19.620;2022-09-24T09:25:56;11.90;;;7.30;;
69005;SDS011;56061;51.748;19.620;2022-09-24T09:28:26;12.00;;;7.50;;
69005;SDS011;56061;51.748;19.620;2022-09-24T09:30:56;10.60;;;7.20;;
69005;SDS011;56061;51.748;19.620;2022-09-24T09:33:50;12.00;;;7.20;;
69005;SDS011;56061;51.748;19.620;2022-09-24T09:42:31;10.80;;;6.80;;
69005;SDS011;56061;51.748;19.620;2022-09-24T09:45:14;10.80;;;7.00;;
69005;SDS011;56061;51.748;19.620;2022-09-24T09:47:55;10.00;;;6.00;;
69005;SDS011;56061;51.748;19.620;2022-09-24T09:53:24;11.00;;;6.50;;
69005;SDS011;56061;51.748;19.620;2022-09-24T09:56:00;12.00;;;6.90;;
69005;SDS011;56061;51.748;19.620;2022-09-24T09:58:31;10.70;;;6.30;;
69005;SDS011;56061;51.748;19.620;2022-09-24T10:01:14;11.20;;;6.20;;
69005;SDS011;56061;51.748;19.620;2022-09-24T10:06:27;11.30;;;7.00;;
69005;SDS011;56061;51.748;19.620;2022-09-24T10:09:07;9.30;;;6.30;;
69005;SDS011;56061;51.748;19.620;2022-09-24T10:11:38;13.10;;;7.10;;
69005;SDS011;56061;51.748;19.620;2022-09-24T10:14:16;10.00;;;7.00;;
69005;SDS011;56061;51.748;19.620;2022-09-24T10:16:48;14.40;;;7.20;;
69005;SDS011;56061;51.748;19.620;2022-09-24T10:19:22;11.10;;;6.10;;
69005;SDS011;56061;51.748;19.620;2022-09-24T10:21:52;11.30;;;7.00;;
69005;SDS011;56061;51.748;19.620;2022-09-24T10:24:24;13.20;;;6.50;;
69005;SDS011;56061;51.748;19.620;2022-09-24T10:26:52;15.20;;;7.60;;
69005;SDS011;56061;51.748;19.620;2022-09-24T10:29:25;11.80;;;6.30;;
69005;SDS011;56061;51.748;19.620;2022-09-24T10:32:16;16.40;;;7.90;;
69005;SDS011;56061;51.748;19.620;2022-09-24T10:34:56;12.60;;;7.10;;
69005;SDS011;56061;51.748;19.620;2022-09-24T10:37:28;18.10;;;8.90;;
69005;SDS011;56061;51.748;19.620;2022-09-24T10:40:12;12.30;;;6.90;;
69005;SDS011;56061;51.748;19.620;2022-09-24T10:42:40;11.00;;;6.30;;
69005;SDS011;56061;51.748;19.620;2022-09-24T10:45:17;10.20;;;5.90;;
69005;SDS011;56061;51.748;19.620;2022-09-24T10:47:56;12.00;;;6.70;;
69005;SDS011;56061;51.748;19.620;2022-09-24T10:50:32;11.80;;;6.60;;
69005;SDS011;56061;51.748;19.620;2022-09-24T10:53:28;14.50;;;7.40;;
69005;SDS011;56061;51.748;19.620;2022-09-24T10:56:19;13.30;;;7.20;;
69005;SDS011;56061;51.748;19.620;2022-09-24T10:58:59;12.40;;;7.10;;
69005;SDS011;56061;51.748;19.620;2022-09-24T11:04:49;12.20;;;6.50;;
69005;SDS011;56061;51.748;19.620;2022-09-24T11:10:52;11.30;;;6.40;;
69005;SDS011;56061;51.748;19.620;2022-09-24T11:13:51;10.90;;;6.00;;
69005;SDS011;56061;51.748;19.620;2022-09-24T11:19:13;9.40;;;5.60;;
69005;SDS011;56061;51.748;19.620;2022-09-24T11:30:57;8.80;;;4.70;;
69005;SDS011;56061;51.748;19.620;2022-09-24T11:34:04;12.50;;;6.20;;
69005;SDS011;56061;51.748;19.620;2022-09-24T11:42:42;7.80;;;4.60;;
69005;SDS011;56061;51.748;19.620;2022-09-24T11:45:37;9.30;;;5.00;;
69005;SDS011;56061;51.748;19.620;2022-09-24T11:48:45;8.70;;;4.90;;
69005;SDS011;56061;51.748;19.620;2022-09-24T11:52:09;9.40;;;4.40;;
69005;SDS011;56061;51.748;19.620;2022-09-24T11:55:29;9.00;;;4.80;;
69005;SDS011;56061;51.748;19.620;2022-09-24T11:57:45;9.10;;;4.70;;
69005;SDS011;56061;51.748;19.620;2022-09-24T12:00:20;7.80;;;4.20;;
69005;SDS011;56061;51.748;19.620;2022-09-24T12:03:00;8.50;;;4.70;;
69005;SDS011;56061;51.748;19.620;2022-09-24T12:05:37;7.60;;;4.50;;
69005;SDS011;56061;51.748;19.620;2022-09-24T12:11:03;7.40;;;4.10;;
69005;SDS011;56061;51.748;19.620;2022-09-24T12:13:41;8.20;;;3.90;;
69005;SDS011;56061;51.748;19.620;2022-09-24T12:16:16;9.30;;;4.20;;
69005;SDS011;56061;51.748;19.620;2022-09-24T12:21:42;6.80;;;3.70;;
69005;SDS011;56061;51.748;19.620;2022-09-24T12:24:37;7.70;;;3.70;;
69005;SDS011;56061;51.748;19.620;2022-09-24T12:27:14;8.30;;;3.90;;
69005;SDS011;56061;51.748;19.620;2022-09-24T12:29:55;7.40;;;3.60;;
69005;SDS011;56061;51.748;19.620;2022-09-24T12:38:04;7.80;;;4.20;;
69005;SDS011;56061;51.748;19.620;2022-09-24T12:40:57;6.40;;;3.50;;
69005;SDS011;56061;51.748;19.620;2022-09-24T12:43:59;6.80;;;3.60;;
69005;SDS011;56061;51.748;19.620;2022-09-24T12:51:53;6.30;;;3.30;;
69005;SDS011;56061;51.748;19.620;2022-09-24T12:57:12;7.40;;;3.60;;
69005;SDS011;56061;51.748;19.620;2022-09-24T12:59:58;6.70;;;3.80;;
69005;SDS011;56061;51.748;19.620;2022-09-24T13:02:29;7.60;;;3.50;;
69005;SDS011;56061;51.748;19.620;2022-09-24T13:10:36;8.10;;;3.60;;
69005;SDS011;56061;51.748;19.620;2022-09-24T13:13:21;7.50;;;3.30;;
69005;SDS011;56061;51.748;19.620;2022-09-24T13:16:17;9.00;;;3.80;;
69005;SDS011;56061;51.748;19.620;2022-09-24T13:18:54;7.30;;;3.60;;
69005;SDS011;56061;51.748;19.620;2022-09-24T13:21:25;6.80;;;3.80;;
69005;SDS011;56061;51.748;19.620;2022-09-24T13:23:54;7.50;;;4.40;;
69005;SDS011;56061;51.748;19.620;2022-09-24T13:26:27;8.20;;;3.60;;
69005;SDS011;56061;51.748;19.620;2022-09-24T13:28:58;9.30;;;4.50;;
69005;SDS011;56061;51.748;19.620;2022-09-24T13:31:36;9.00;;;4.20;;
69005;SDS011;56061;51.748;19.620;2022-09-24T13:34:11;10.30;;;4.40;;
69005;SDS011;56061;51.748;19.620;2022-09-24T13:37:32;7.80;;;4.50;;
69005;SDS011;56061;51.748;19.620;2022-09-24T13:40:14;8.10;;;4.10;;
69005;SDS011;56061;51.748;19.620;2022-09-24T13:42:50;9.50;;;4.10;;
69005;SDS011;56061;51.748;19.620;2022-09-24T13:45:24;8.70;;;4.70;;
69005;SDS011;56061;51.748;19.620;2022-09-24T13:48:02;10.40;;;4.80;;
69005;SDS011;56061;51.748;19.620;2022-09-24T13:50:36;8.50;;;4.60;;
69005;SDS011;56061;51.748;19.620;2022-09-24T13:53:17;11.40;;;5.20;;
69005;SDS011;56061;51.748;19.620;2022-09-24T13:55:57;13.20;;;5.20;;
69005;SDS011;56061;51.748;19.620;2022-09-24T13:58:35;9.90;;;4.40;;
69005;SDS011;56061;51.748;19.620;2022-09-24T14:01:10;10.30;;;5.10;;
69005;SDS011;56061;51.748;19.620;2022-09-24T14:03:38;10.10;;;5.00;;
69005;SDS011;56061;51.748;19.620;2022-09-24T14:06:14;21.90;;;10.40;;
69005;SDS011;56061;51.748;19.620;2022-09-24T14:08:43;77.80;;;34.40;;
69005;SDS011;56061;51.748;19.620;2022-09-24T14:11:14;46.50;;;22.50;;
69005;SDS011;56061;51.748;19.620;2022-09-24T14:13:44;20.10;;;10.00;;
69005;SDS011;56061;51.748;19.620;2022-09-24T14:16:19;20.90;;;9.90;;
69005;SDS011;56061;51.748;19.620;2022-09-24T14:18:48;15.30;;;7.30;;
69005;SDS011;56061;51.748;19.620;2022-09-24T14:21:20;11.50;;;6.00;;
69005;SDS011;56061;51.748;19.620;2022-09-24T14:23:57;11.70;;;6.10;;
69005;SDS011;56061;51.748;19.620;2022-09-24T14:26:35;22.70;;;9.10;;
69005;SDS011;56061;51.748;19.620;2022-09-24T14:29:25;30.10;;;11.10;;
69005;SDS011;56061;51.748;19.620;2022-09-24T14:31:57;28.50;;;9.80;;
69005;SDS011;56061;51.748;19.620;2022-09-24T14:34:44;22.00;;;8.50;;
69005;SDS011;56061;51.748;19.620;2022-09-24T14:37:36;26.80;;;9.00;;
69005;SDS011;56061;51.748;19.620;2022-09-24T14:40:16;23.80;;;7.60;;
69005;SDS011;56061;51.748;19.620;2022-09-24T14:42:46;24.00;;;8.70;;
69005;SDS011;56061;51.748;19.620;2022-09-24T14:45:20;26.20;;;10.00;;
69005;SDS011;56061;51.748;19.620;2022-09-24T14:48:02;25.70;;;10.60;;
69005;SDS011;56061;51.748;19.620;2022-09-24T14:50:43;26.10;;;10.30;;
69005;SDS011;56061;51.748;19.620;2022-09-24T14:53:20;22.30;;;9.30;;
69005;SDS011;56061;51.748;19.620;2022-09-24T14:55:55;19.80;;;8.70;;
69005;SDS011;56061;51.748;19.620;2022-09-24T15:01:18;23.60;;;9.80;;
69005;SDS011;56061;51.748;19.620;2022-09-24T15:03:51;19.20;;;8.90;;
69005;SDS011;56061;51.748;19.620;2022-09-24T15:06:22;18.50;;;8.90;;
69005;SDS011;56061;51.748;19.620;2022-09-24T15:09:05;20.20;;;8.60;;
69005;SDS011;56061;51.748;19.620;2022-09-24T15:12:06;17.80;;;8.80;;
69005;SDS011;56061;51.748;19.620;2022-09-24T15:14:34;18.60;;;8.40;;
69005;SDS011;56061;51.748;19.620;2022-09-24T15:17:18;13.10;;;7.20;;
69005;SDS011;56061;51.748;19.620;2022-09-24T15:19:46;11.50;;;6.30;;
69005;SDS011;56061;51.748;19.620;2022-09-24T15:22:13;11.90;;;6.30;;
69005;SDS011;56061;51.748;19.620;2022-09-24T15:24:40;15.50;;;6.70;;
69005;SDS011;56061;51.748;19.620;2022-09-24T15:27:27;11.60;;;6.80;;
69005;SDS011;56061;51.748;19.620;2022-09-24T15:30:05;12.00;;;6.20;;
69005;SDS011;56061;51.748;19.620;2022-09-24T15:32:36;15.40;;;6.10;;
69005;SDS011;56061;51.748;19.620;2022-09-24T15:35:04;11.80;;;6.40;;
69005;SDS011;56061;51.748;19.620;2022-09-24T15:37:38;14.40;;;6.90;;
69005;SDS011;56061;51.748;19.620;2022-09-24T15:40:08;14.50;;;7.10;;
69005;SDS011;56061;51.748;19.620;2022-09-24T15:42:42;16.10;;;7.90;;
69005;SDS011;56061;51.748;19.620;2022-09-24T15:45:21;16.10;;;6.60;;
69005;SDS011;56061;51.748;19.620;2022-09-24T15:47:50;12.20;;;6.70;;
69005;SDS011;56061;51.748;19.620;2022-09-24T15:50:19;11.20;;;6.80;;
69005;SDS011;56061;51.748;19.620;2022-09-24T15:52:51;11.30;;;6.00;;
69005;SDS011;56061;51.748;19.620;2022-09-24T15:55:21;11.50;;;6.20;;
69005;SDS011;56061;51.748;19.620;2022-09-24T15:57:47;10.10;;;6.20;;
69005;SDS011;56061;51.748;19.620;2022-09-24T16:00:20;12.00;;;6.80;;
69005;SDS011;56061;51.748;19.620;2022-09-24T16:02:54;13.40;;;6.90;;
69005;SDS011;56061;51.748;19.620;2022-09-24T16:05:22;11.60;;;6.00;;
69005;SDS011;56061;51.748;19.620;2022-09-24T16:07:50;10.60;;;6.70;;
69005;SDS011;56061;51.748;19.620;2022-09-24T16:10:17;14.50;;;8.40;;
69005;SDS011;56061;51.748;19.620;2022-09-24T16:12:43;13.00;;;7.60;;
69005;SDS011;56061;51.748;19.620;2022-09-24T16:15:11;12.50;;;7.40;;
69005;SDS011;56061;51.748;19.620;2022-09-24T16:17:41;15.80;;;8.10;;
69005;SDS011;56061;51.748;19.620;2022-09-24T16:20:08;15.50;;;9.30;;
69005;SDS011;56061;51.748;19.620;2022-09-24T16:22:35;15.40;;;9.60;;
69005;SDS011;56061;51.748;19.620;2022-09-24T16:25:02;17.90;;;10.20;;
69005;SDS011;56061;51.748;19.620;2022-09-24T16:27:29;17.10;;;10.40;;